Date,TemperatureHighF,TemperatureAvgF,TemperatureLowF,DewpointHighF,DewpointAvgF,DewpointLowF,HumidityHigh,HumidityAvg,HumidityLow,PressureMaxIn,PressureMinIn,WindSpeedMaxMPH,WindSpeedAvgMPH,GustSpeedMaxMPH,PrecipitationSumIn
2013-1-1,53.2,40.3,31.8,36.9,32.0,28.0,91,74,49,30.30,30.22,8,1,14,0.00
2013-1-2,57.2,38.0,26.6,40.7,29.2,22.1,95,73,36,30.28,30.15,4,0,7,0.00
2013-1-3,57.0,37.9,27.0,42.4,32.0,22.8,95,80,56,30.30,30.19,4,0,4,0.00
2013-1-4,57.9,39.8,29.3,43.0,32.3,26.6,95,77,44,30.31,30.19,4,0,7,0.02
2013-1-5,53.1,41.5,31.3,45.2,37.8,28.1,95,87,69,30.28,30.10,4,1,8,0.16
2013-1-6,48.7,42.6,34.9,45.6,40.7,32.5,95,93,87,30.23,30.09,4,0,7,0.02
2013-1-7,61.7,43.5,31.8,49.9,39.0,29.7,97,85,58,30.27,30.17,5,0,8,0.02
2013-1-8,58.5,42.9,35.1,49.6,39.5,32.4,96,88,64,30.27,30.15,5,0,7,0.00
2013-1-9,55.2,43.8,35.6,49.1,39.8,31.5,96,86,65,30.19,29.99,5,1,8,0.02
2013-1-10,53.1,42.3,31.8,36.9,32.7,28.6,90,70,44,30.16,30.07,6,1,8,0.00
2013-1-11,35.2,33.9,32.7,31.5,30.0,29.0,86,86,85,30.20,30.18,2,0,2,0.00
2013-1-12,52.9,37.3,26.6,40.0,26.7,19.5,95,70,28,30.27,30.15,4,0,7,0.00
2013-1-13,51.6,33.7,23.0,33.5,21.1,14.5,88,64,24,30.29,30.18,4,0,8,0.00
2013-1-14,52.7,38.7,27.9,23.1,16.9,9.2,72,44,22,30.43,30.23,7,1,11,0.00
2013-1-15,30.6,29.1,27.0,24.6,22.2,19.2,80,75,71,30.48,30.41,2,0,3,0.00
2013-1-16,30.4,28.3,26.1,25.6,24.3,21.6,87,85,80,30.46,30.31,1,0,2,0.00
2013-1-17,64.6,38.6,30.4,35.9,29.0,25.6,82,67,29,30.31,29.97,2,0,4,10.77
2013-1-18,64.6,47.6,26.8,43.8,28.4,23.4,97,58,24,30.26,30.14,5,2,7,0.00
2013-1-19,62.4,38.9,26.6,39.5,32.6,24.3,99,81,38,30.27,30.18,3,0,5,0.00
2013-1-20,64.4,42.0,27.1,43.0,31.1,24.5,99,72,23,30.26,30.14,6,1,9,0.00
2013-1-21,65.5,42.0,26.8,43.6,34.4,24.5,99,78,42,30.20,30.11,4,0,5,0.00
2013-1-22,61.5,43.5,28.8,48.8,38.0,28.3,99,83,51,30.15,30.03,5,0,7,0.00
2013-1-23,52.3,46.9,41.7,50.7,45.8,41.2,99,96,81,30.13,29.98,3,0,5,0.09
2013-1-24,60.1,52.8,47.5,53.3,50.4,47.2,99,92,75,30.22,30.09,4,1,7,0.01
2013-1-25,67.3,53.5,41.3,56.0,49.8,31.5,99,86,38,30.22,29.97,4,0,5,10.88
2013-1-26,61.0,49.2,39.9,55.6,42.9,34.2,99,81,37,30.09,29.99,6,1,13,0.00
2013-1-27,59.0,45.0,32.5,42.5,35.7,29.5,99,74,35,30.18,30.07,6,1,8,0.00
2013-1-28,61.0,46.8,34.9,42.8,37.9,31.4,95,73,43,30.30,30.16,5,1,9,0.00
2013-1-29,62.4,46.3,34.3,47.1,38.6,32.5,99,77,42,30.36,30.26,4,1,7,0.00
2013-1-30,67.1,48.1,37.0,50.1,40.6,35.5,99,79,41,30.36,30.27,4,1,7,0.00
2013-1-31,67.5,46.6,32.7,49.4,40.5,31.4,99,82,49,30.32,30.20,4,0,5,0.00
2013-2-1,66.9,47.9,33.3,51.6,41.4,32.2,99,81,48,30.24,30.14,4,1,6,0.00
2013-2-2,65.3,48.9,39.0,52.3,44.0,38.6,99,85,55,30.31,30.21,3,0,5,0.00
2013-2-3,65.1,48.7,37.2,50.8,43.3,36.2,99,84,50,30.27,30.14,4,0,5,0.04
2013-2-4,66.7,48.6,36.3,51.1,44.0,35.0,99,86,53,30.19,30.06,5,1,7,0.00
2013-2-5,58.8,49.3,39.0,47.2,43.9,37.9,97,83,62,30.18,30.07,5,1,8,0.00
2013-2-6,63.9,46.0,33.4,46.5,39.1,31.9,99,80,45,30.21,30.11,4,1,7,0.00
2013-2-7,58.8,45.2,36.9,49.1,39.4,34.8,98,82,47,30.20,30.01,5,1,8,0.07
2013-2-8,41.9,37.8,32.4,41.4,36.4,29.2,98,95,88,30.02,29.94,2,0,2,0.01
2013-2-9,62.2,41.3,27.5,40.0,29.0,23.8,97,68,24,30.12,30.01,4,1,6,0.00
2013-2-10,62.1,44.0,30.9,40.0,34.5,27.6,92,72,42,30.14,30.02,5,1,8,0.00
2013-2-11,66.4,45.7,30.4,46.6,32.0,25.3,99,66,23,30.23,30.09,6,1,9,0.00
2013-2-12,41.3,41.3,41.3,31.5,31.5,31.5,38,38,38,29.97,29.97,1,1,0,0.00
2013-2-13,45.3,41.5,39.7,40.2,32.8,31.5,94,46,38,30.25,29.97,2,1,2,11.01
2013-2-14,72.1,52.0,36.0,50.6,40.9,34.7,99,71,35,30.26,30.17,6,1,11,0.00
2013-2-15,72.1,57.8,37.6,47.1,42.3,35.9,97,60,35,30.29,30.23,5,1,8,0.00
2013-2-16,71.2,50.4,35.8,51.6,43.3,35.0,99,80,42,30.27,30.07,3,0,5,0.00
2013-2-17,68.5,50.1,36.5,51.6,41.0,35.7,99,77,32,30.07,29.97,6,1,11,0.00
2013-2-18,54.3,45.7,36.0,50.1,40.0,35.2,99,82,60,30.05,29.96,6,1,9,0.00
2013-2-19,50.0,43.0,34.7,45.7,39.2,32.6,98,87,69,29.98,29.75,7,1,12,0.35
2013-2-20,62.8,45.3,32.4,40.5,35.7,30.2,99,74,32,30.08,29.85,6,1,10,0.00
2013-2-21,63.7,44.7,30.7,46.0,34.7,27.5,99,74,26,30.20,30.06,8,1,12,0.00
2013-2-22,67.6,48.5,33.3,45.5,38.5,32.5,99,74,34,30.26,30.18,5,1,8,0.00
2013-2-23,61.7,49.8,37.4,47.9,39.1,30.8,99,71,32,30.27,30.16,7,1,11,0.00
2013-2-24,65.5,45.9,29.1,44.8,28.8,18.8,99,61,17,30.27,30.17,8,1,11,0.00
2013-2-25,66.4,49.2,35.6,45.8,38.3,31.0,95,68,41,30.30,30.17,5,1,8,0.00
2013-2-26,72.0,49.9,32.0,46.2,30.4,18.9,99,59,14,30.24,30.13,5,1,9,0.00
2013-2-27,72.3,52.0,35.6,43.7,37.5,31.4,90,63,24,30.39,30.23,5,1,8,0.00
2013-2-28,73.0,55.7,41.5,53.2,48.2,41.2,99,79,45,30.46,30.38,5,1,9,0.00
2013-3-1,76.8,56.2,42.3,54.0,47.6,42.0,99,77,41,30.46,30.26,8,1,10,0.00
2013-3-2,73.0,57.9,44.2,55.2,49.6,43.7,99,76,51,30.28,30.07,4,1,6,0.00
2013-3-3,69.4,56.5,43.2,51.7,47.5,42.6,98,74,46,30.12,30.03,8,1,12,0.00
2013-3-4,67.5,49.0,39.4,51.7,44.5,39.1,99,86,55,30.16,30.06,5,1,8,0.00
2013-3-5,61.7,49.3,36.5,49.6,42.0,35.7,99,78,52,30.08,29.82,11,3,20,0.11
2013-3-6,59.2,50.2,37.2,48.7,42.5,35.7,98,77,48,30.09,29.84,11,2,20,0.12
2013-3-7,60.1,47.5,35.6,47.4,41.3,34.8,99,82,52,30.02,29.86,5,1,8,0.09
2013-3-8,64.6,49.5,38.8,50.6,41.7,36.3,99,79,37,30.07,29.84,8,1,14,0.00
2013-3-9,70.7,50.8,34.9,50.0,39.6,32.7,99,72,25,30.33,30.07,8,1,10,0.00
2013-3-10,74.7,52.8,35.2,48.8,38.1,29.2,99,66,21,30.37,30.25,6,1,8,0.00
2013-3-11,78.1,55.5,37.2,46.6,41.6,34.8,98,65,27,30.28,30.11,6,1,8,0.00
2013-3-12,78.8,57.9,40.8,52.9,46.4,39.7,99,70,33,30.16,30.07,7,1,8,0.00
2013-3-13,79.0,60.2,42.4,57.3,51.2,42.2,99,76,44,30.18,30.07,6,1,9,0.00
2013-3-14,77.9,60.5,46.9,59.0,49.7,43.0,99,72,32,30.16,30.10,5,1,8,0.00
2013-3-15,78.4,58.6,44.1,53.3,47.7,43.2,99,72,36,30.16,30.04,5,1,8,0.00
2013-3-16,61.0,53.7,41.3,49.3,45.2,31.5,96,74,38,30.12,29.97,4,1,8,11.68
2013-3-17,76.3,57.6,41.5,48.0,41.9,29.1,97,60,20,30.16,30.04,5,1,8,0.00
2013-3-18,75.0,56.7,40.8,51.5,44.9,39.2,99,69,37,30.14,30.03,4,1,9,0.00
2013-3-19,76.8,57.4,46.4,48.6,45.7,39.6,95,69,35,30.16,30.07,6,1,11,0.05
2013-3-20,54.1,52.4,41.3,51.8,50.0,31.5,95,91,38,30.16,29.97,2,0,4,0.00
2013-3-21,69.1,53.8,39.6,51.8,44.0,39.3,99,73,35,30.15,30.02,8,1,9,0.00
2013-3-22,70.3,52.0,34.7,49.2,31.9,16.8,99,60,13,30.12,30.03,10,2,14,0.00
2013-3-23,72.3,52.6,33.8,43.8,32.2,20.5,99,56,16,30.16,30.04,5,1,11,0.00
2013-3-24,75.4,56.9,40.6,50.8,42.9,36.5,90,63,33,30.10,29.97,5,1,7,0.00
2013-3-25,69.4,52.9,39.9,50.2,44.7,39.7,99,76,40,30.02,29.95,7,1,11,0.00
2013-3-26,72.1,56.8,43.7,50.5,46.1,42.4,99,70,44,30.02,29.93,7,1,10,0.00
2013-3-27,68.0,55.8,44.2,54.1,49.4,42.4,97,81,58,30.04,29.96,5,1,11,0.00
2013-3-28,72.5,59.9,51.4,60.3,54.5,50.6,99,84,55,30.11,30.02,5,0,9,0.05
2013-3-29,79.7,61.7,45.0,58.5,51.3,44.2,99,73,42,30.12,30.01,5,1,8,0.01
2013-3-30,74.1,60.9,54.0,57.2,53.6,50.9,99,79,46,30.07,29.99,5,1,8,0.05
2013-3-31,70.7,60.5,50.5,58.5,53.4,49.7,99,80,49,30.08,30.01,7,1,9,0.11
2013-4-1,69.8,59.9,48.2,60.1,52.7,47.1,99,79,56,30.18,30.11,6,1,9,0.30
2013-4-2,76.3,57.3,43.5,56.6,50.3,43.0,99,80,49,30.20,30.09,4,1,7,0.00
2013-4-3,79.7,60.9,47.1,57.2,51.5,46.9,99,75,42,30.17,29.98,6,1,11,0.00
2013-4-4,66.0,60.4,52.3,60.9,55.9,51.8,99,85,75,30.14,30.02,7,2,11,0.05
2013-4-5,66.0,58.3,53.1,58.6,52.8,50.1,99,83,65,30.20,30.14,5,1,8,0.04
2013-4-6,54.5,54.0,53.8,51.3,51.1,50.9,91,90,88,30.21,30.19,2,0,4,0.00
2013-4-7,66.2,59.2,52.0,57.2,51.4,46.6,97,76,60,30.13,29.84,7,2,11,0.08
2013-4-8,68.7,56.3,44.2,51.4,37.2,19.6,96,56,16,30.05,29.82,10,3,17,0.00
2013-4-9,77.2,62.7,42.3,44.4,34.0,25.8,96,41,17,30.10,30.05,9,2,14,0.00
2013-4-10,71.4,68.2,61.5,52.4,34.1,30.5,68,30,24,30.08,30.04,3,2,7,0.00
2013-4-11,77.2,63.1,50.5,52.3,48.5,40.4,90,62,27,30.08,29.86,4,1,7,0.00
2013-4-12,82.9,60.9,45.7,54.3,46.9,39.2,99,66,22,29.93,29.84,4,1,8,0.00
2013-4-13,74.3,58.8,45.3,52.7,47.8,44.5,99,70,42,29.93,29.82,6,1,9,0.00
2013-4-14,75.2,57.3,41.7,48.5,42.9,33.8,99,65,25,29.94,29.85,11,2,15,0.00
2013-4-15,63.5,53.7,45.5,48.3,41.4,32.8,93,66,33,29.98,29.87,9,2,14,0.00
2013-4-16,70.3,55.3,38.7,42.1,32.7,18.7,91,50,15,30.19,29.98,6,1,10,0.00
2013-4-17,71.6,56.3,37.8,40.0,30.0,19.9,89,45,14,30.28,30.19,7,1,11,0.00
2013-4-18,78.6,56.7,39.0,42.1,37.4,32.7,92,57,21,30.29,30.23,4,1,8,0.00
2013-4-19,87.1,66.2,46.9,54.0,46.5,40.2,80,53,26,30.25,30.09,5,1,8,0.00
2013-4-20,85.1,66.7,47.5,52.9,45.3,37.3,95,52,21,30.14,29.99,4,1,9,0.00
2013-4-21,90.5,68.2,46.9,53.7,45.2,35.9,92,51,15,30.06,29.94,4,0,7,0.00
2013-4-22,91.6,71.4,52.5,56.5,45.1,30.9,82,47,12,29.99,29.85,4,1,5,0.00
2013-4-23,59.7,54.4,41.3,48.5,44.9,31.5,82,70,38,29.97,29.90,2,0,3,12.64
2013-4-24,84.0,60.8,44.4,54.1,46.3,36.5,94,65,22,29.98,29.84,8,1,14,0.00
2013-4-25,69.8,58.2,48.2,53.9,50.5,46.5,99,77,55,30.16,29.97,7,1,10,0.00
2013-4-26,80.1,60.1,42.8,56.7,50.0,42.3,99,73,43,30.23,30.15,5,0,8,0.00
2013-4-27,89.6,63.9,43.9,61.2,51.4,43.4,99,69,34,30.24,30.08,4,0,7,0.00
2013-4-28,91.0,69.1,49.5,58.1,53.1,47.2,96,62,29,30.10,29.90,2,0,4,0.00
2013-4-29,95.0,74.7,54.9,60.7,52.6,46.6,92,53,23,29.92,29.77,6,0,8,0.00
2013-4-30,88.2,70.3,52.3,56.5,43.4,25.9,94,46,13,29.88,29.80,4,1,8,0.00
2013-5-1,87.3,72.8,58.3,42.2,29.3,20.0,54,22,11,30.12,29.88,4,1,8,0.00
2013-5-2,94.1,74.0,52.9,88.6,35.1,23.2,97,29,11,30.19,30.10,3,1,8,0.00
2013-5-3,94.8,74.7,53.6,46.5,40.0,33.5,60,33,14,30.13,29.83,4,0,6,12.64
2013-5-4,94.3,70.7,52.0,55.4,43.2,32.6,85,45,13,29.83,29.56,4,1,8,0.00
2013-5-5,73.9,61.1,51.1,53.4,49.9,46.0,88,68,44,29.84,29.63,4,1,8,0.00
2013-5-6,74.3,62.5,52.9,57.7,52.7,50.3,96,72,47,30.01,29.84,4,0,8,0.00
2013-5-7,77.2,63.3,52.7,57.9,52.2,48.0,98,70,40,30.08,29.99,4,1,9,0.00
2013-5-8,71.1,58.0,49.6,55.1,51.6,48.6,99,81,53,30.17,30.07,4,1,10,0.00
2013-5-9,74.7,60.1,46.4,56.9,51.3,46.1,99,75,50,30.20,30.09,5,1,8,0.00
2013-5-10,84.9,63.4,47.3,61.6,53.5,47.0,99,74,44,30.21,30.10,6,1,9,0.00
2013-5-11,97.0,71.6,51.4,64.4,55.0,46.1,99,62,23,30.18,30.04,4,1,11,0.00
2013-5-12,91.8,71.9,53.6,61.7,53.9,46.6,88,56,33,30.15,30.04,6,1,10,0.00
2013-5-13,87.4,68.1,49.8,59.7,53.5,46.6,93,63,36,30.09,29.96,6,1,11,0.00
2013-5-14,84.0,66.1,52.2,57.4,51.6,47.1,95,63,31,30.03,29.93,5,1,8,0.00
2013-5-15,74.1,60.4,47.7,52.5,49.4,46.0,96,70,42,30.07,30.01,8,1,11,0.00
2013-5-16,74.1,60.7,52.7,57.9,53.2,49.3,95,78,53,30.05,29.99,8,1,11,0.00
2013-5-17,73.6,59.1,47.1,55.0,48.2,44.8,99,70,42,30.11,30.00,4,1,9,0.00
2013-5-18,80.2,62.5,44.2,56.7,50.1,43.7,99,68,38,30.14,30.09,5,1,8,0.00
2013-5-19,88.7,68.0,48.0,55.7,47.8,40.7,99,56,19,30.15,30.00,3,0,5,0.00
2013-5-20,94.6,70.9,47.7,57.6,43.6,28.7,94,47,14,30.03,29.94,6,1,11,0.00
2013-5-21,76.8,62.7,51.8,53.8,46.8,41.1,83,59,34,30.01,29.94,6,1,11,0.00
2013-5-22,73.9,58.0,43.9,43.4,36.4,20.7,82,51,14,30.04,29.92,4,1,9,0.00
2013-5-23,75.2,57.8,42.8,50.6,44.0,40.6,99,64,35,30.04,29.94,7,1,11,0.00
2013-5-24,76.3,58.9,42.8,52.6,44.9,37.5,99,66,26,30.02,29.97,5,1,11,0.00
2013-5-25,73.4,58.6,46.9,51.2,47.7,44.9,97,70,39,30.08,29.98,6,1,10,0.00
2013-5-26,74.8,61.0,49.6,54.9,51.9,48.1,99,75,47,30.16,30.07,9,2,14,0.00
2013-5-27,69.4,59.0,48.0,58.2,53.4,47.7,99,83,63,30.16,30.02,6,1,9,0.01
2013-5-28,76.1,64.6,56.5,60.1,56.5,53.1,99,77,52,30.04,29.93,7,1,11,0.00
2013-5-29,75.4,64.4,53.4,58.2,53.3,48.8,87,69,50,30.00,29.92,8,1,11,0.00
2013-5-30,82.4,64.2,47.1,55.7,48.3,37.1,99,63,25,30.01,29.95,5,1,10,0.00
2013-5-31,95.9,71.3,48.0,55.2,48.9,40.6,96,53,15,30.04,29.92,7,1,11,0.00
2013-6-1,100.9,78.3,54.3,56.2,51.3,44.3,83,45,15,29.96,29.78,5,1,8,0.00
2013-6-2,93.9,74.2,56.8,60.3,53.3,47.6,82,51,29,29.80,29.66,5,1,11,0.00
2013-6-3,84.6,66.2,53.2,60.2,53.7,50.4,93,67,41,29.87,29.73,6,1,11,0.00
2013-6-4,76.1,61.6,49.6,58.0,53.5,49.4,99,77,51,29.98,29.87,6,1,12,0.00
2013-6-5,82.6,65.2,53.4,59.1,53.8,50.8,94,70,41,30.00,29.90,6,1,9,0.00
2013-6-6,89.2,68.6,51.4,62.3,56.1,50.7,99,69,38,29.97,29.83,4,0,9,0.00
2013-6-7,102.6,76.7,54.1,69.1,59.2,52.5,97,60,32,29.90,29.72,3,0,5,0.00
2013-6-8,109.0,81.8,60.8,67.0,59.2,53.7,82,51,21,29.81,29.67,3,0,6,0.00
2013-6-9,77.7,65.3,58.1,60.1,56.7,54.5,94,75,53,29.91,29.81,6,1,12,0.00
2013-6-10,74.7,63.0,55.2,56.4,54.3,52.4,93,75,51,29.98,29.81,5,1,9,0.00
2013-6-11,87.4,66.4,52.7,61.2,55.1,51.6,98,71,37,30.00,29.91,4,0,8,0.00
2013-6-12,83.8,66.8,49.1,56.3,49.8,40.4,98,60,23,30.02,29.92,4,1,9,0.00
2013-6-13,87.1,67.4,49.1,53.8,48.4,41.5,99,58,21,30.09,30.02,4,1,8,0.00
2013-6-14,92.1,72.4,50.0,55.7,46.6,33.3,95,49,13,30.02,29.84,6,1,11,0.00
2013-6-15,75.2,75.2,75.2,45.7,45.7,45.7,35,35,35,29.85,29.85,0,0,0,0.00
2013-6-16,88.3,75.6,58.3,54.6,48.5,45.7,79,40,26,30.11,29.85,5,1,10,0.00
2013-6-17,82.2,66.1,51.1,57.6,53.9,49.8,98,69,39,30.11,30.04,5,1,9,0.00
2013-6-18,74.3,63.1,51.8,54.0,51.1,47.1,98,68,39,30.05,29.99,8,2,13,0.00
2013-6-19,80.4,67.7,48.0,53.6,49.1,45.5,95,57,33,30.06,30.02,4,2,8,0.00
2013-6-20,84.6,66.3,47.8,55.3,50.2,44.9,99,62,28,30.04,29.95,6,1,9,0.00
2013-6-21,88.5,69.6,51.3,57.4,49.4,31.4,98,56,16,30.00,29.92,5,1,7,0.00
2013-6-22,94.6,72.1,51.6,57.1,51.0,43.8,92,54,20,29.96,29.85,4,1,8,0.00
2013-6-23,72.1,63.8,55.9,63.1,58.6,53.7,96,84,70,29.90,29.84,4,1,8,0.00
2013-6-24,68.9,64.3,60.1,63.5,60.7,57.7,95,88,79,29.93,29.81,4,0,5,0.02
2013-6-25,83.7,69.8,62.8,68.2,63.5,59.4,97,81,57,30.01,29.90,16,1,19,0.01
2013-6-26,87.4,74.3,64.4,67.8,63.4,59.8,95,71,44,30.07,30.00,6,1,8,0.00
2013-6-27,89.1,69.5,58.5,65.8,60.8,57.4,99,77,43,30.10,30.06,3,0,7,0.00
2013-6-28,107.4,84.5,62.6,66.8,58.3,44.3,84,47,15,30.06,29.90,8,1,11,0.00
2013-6-29,109.8,92.5,64.4,62.5,57.9,44.1,73,35,13,29.94,29.79,5,1,7,0.00
2013-6-30,103.8,83.6,63.0,66.0,59.0,53.6,79,48,21,29.86,29.75,4,1,7,0.00
2013-7-1,105.6,84.7,63.1,68.3,60.1,45.3,82,47,14,29.85,29.79,4,0,8,0.00
2013-7-2,109.9,85.3,69.4,66.5,60.2,42.7,73,47,11,29.92,29.83,4,0,9,0.00
2013-7-3,105.3,82.6,63.1,68.1,61.1,56.7,85,53,24,29.92,29.76,4,0,9,0.00
2013-7-4,106.7,85.6,70.2,68.0,60.5,53.4,68,46,24,29.80,29.66,7,1,11,0.00
2013-7-5,78.6,67.5,56.5,57.2,54.2,51.4,89,64,45,29.82,29.73,7,1,13,0.00
2013-7-6,86.4,66.9,53.2,59.4,55.4,52.7,99,71,37,29.81,29.73,5,1,8,0.00
2013-7-7,95.0,70.2,50.5,61.0,54.6,39.9,99,65,15,29.89,29.77,4,0,9,0.00
2013-7-8,96.3,70.4,50.5,60.8,52.3,36.7,99,62,13,29.99,29.88,5,0,8,0.00
2013-7-9,103.1,78.3,55.0,63.1,53.6,35.8,96,51,12,30.04,29.92,4,0,8,0.00
2013-7-10,96.3,74.0,56.7,59.9,49.4,34.8,87,49,13,30.00,29.90,4,1,9,0.00
2013-7-11,89.2,67.1,51.1,58.6,53.3,49.9,99,66,32,29.97,29.88,5,0,9,0.00
2013-7-12,89.1,68.1,51.6,60.5,52.7,46.4,99,64,29,29.95,29.88,6,1,11,0.00
2013-7-13,97.3,73.5,52.3,59.7,50.9,42.2,98,52,17,29.98,29.90,3,0,5,0.00
2013-7-14,92.3,71.2,52.3,58.9,49.5,37.4,93,52,21,30.00,29.89,6,1,9,0.00
2013-7-15,81.0,63.2,49.5,57.4,53.1,48.7,99,73,41,29.94,29.84,5,1,10,0.00
2013-7-16,73.4,63.7,56.1,57.2,55.4,53.4,94,76,55,30.06,29.90,9,1,13,0.00
2013-7-17,86.4,68.3,51.6,61.4,55.9,49.1,99,69,35,30.11,30.02,6,1,9,0.00
2013-7-18,96.1,71.9,52.9,61.4,53.2,41.2,99,61,17,30.09,29.93,8,1,11,0.00
2013-7-19,99.0,74.7,54.9,62.4,55.4,51.6,96,57,22,29.96,29.80,5,1,8,0.00
2013-7-20,99.5,74.5,55.8,64.8,57.5,53.4,95,60,28,29.86,29.71,4,1,8,0.00
2013-7-21,98.1,75.8,57.4,61.9,55.8,47.8,89,56,22,29.89,29.75,4,1,7,0.00
2013-7-22,94.1,74.1,58.1,63.3,57.9,51.6,94,61,24,29.98,29.89,5,0,8,0.00
2013-7-23,91.9,74.7,63.9,61.7,53.3,41.4,76,51,23,30.02,29.94,8,0,12,0.00
2013-7-24,99.0,77.9,59.2,60.9,53.4,40.8,84,48,14,30.00,29.89,5,0,9,0.00
2013-7-25,97.7,76.8,60.3,62.7,56.0,48.5,81,52,28,30.03,29.93,3,0,8,0.00
2013-7-26,92.8,73.1,57.7,61.1,55.9,49.8,90,58,30,30.10,29.99,6,1,11,0.00
2013-7-27,93.7,71.4,54.7,63.3,55.8,48.5,99,63,27,30.04,29.86,8,1,11,0.00
2013-7-28,88.9,68.8,54.7,62.1,56.2,53.2,99,69,33,29.89,29.79,6,0,11,0.00
2013-7-29,79.5,63.0,51.8,60.5,54.9,51.3,99,77,45,30.02,29.86,6,1,12,0.00
2013-7-30,90.3,67.0,50.2,60.7,54.0,48.8,99,69,25,30.09,30.02,4,0,10,0.00
2013-7-31,84.9,67.4,51.8,59.7,53.2,46.8,99,66,29,30.09,30.01,6,1,10,0.00
2013-8-1,83.7,67.1,51.8,59.1,50.6,39.1,99,62,27,30.07,29.98,5,1,11,0.00
2013-8-2,88.2,68.5,51.1,58.9,53.5,47.4,99,64,30,30.00,29.89,6,1,9,0.00
2013-8-3,90.9,69.0,50.9,59.7,53.9,48.9,99,64,30,29.98,29.90,4,1,7,0.00
2013-8-4,88.7,66.5,53.8,60.5,54.9,51.2,98,71,28,30.03,29.93,8,1,11,0.00
2013-8-5,86.4,65.9,53.6,61.1,54.7,50.3,99,71,35,30.04,29.94,8,1,11,0.00
2013-8-6,77.9,62.6,51.1,59.2,55.1,50.8,99,79,48,30.07,30.00,9,1,13,0.00
2013-8-7,74.7,63.3,57.7,58.7,56.8,55.0,96,81,57,30.13,30.06,4,1,11,0.00
2013-8-8,80.1,64.6,53.8,60.9,56.8,51.7,95,78,45,30.07,29.96,5,1,9,0.00
2013-8-9,77.5,63.3,51.8,59.9,55.7,51.3,99,79,51,30.02,29.93,5,1,9,0.00
2013-8-10,82.6,66.5,54.9,62.4,57.8,54.0,99,77,44,30.06,30.00,6,1,9,0.00
2013-8-11,86.4,68.3,52.9,61.8,57.0,52.3,99,72,37,30.05,29.94,7,1,11,0.00
2013-8-12,90.1,70.1,51.3,61.8,54.4,48.8,99,64,27,30.00,29.94,4,1,11,0.00
2013-8-13,98.6,73.8,52.9,59.7,54.0,42.4,99,57,19,30.01,29.90,5,0,10,0.00
2013-8-14,90.9,71.7,54.7,60.2,55.7,52.0,94,62,29,29.99,29.91,5,1,8,0.00
2013-8-15,91.6,73.4,59.2,66.1,62.7,58.5,99,73,39,29.99,29.92,6,1,10,0.00
2013-8-16,94.1,75.4,61.0,68.4,61.5,54.9,99,67,33,30.00,29.95,5,1,8,0.00
2013-8-17,85.1,70.9,59.9,61.3,58.8,55.1,90,68,44,30.00,29.87,3,0,4,0.00
2013-8-18,102.2,78.4,58.8,68.3,60.8,56.4,97,62,25,29.90,29.77,3,0,6,0.00
2013-8-19,105.3,81.7,66.6,69.8,60.6,53.2,79,52,27,29.90,29.81,8,0,11,0.00
2013-8-20,94.1,75.2,59.7,63.0,57.1,47.1,85,57,28,29.91,29.81,5,1,10,0.00
2013-8-21,89.6,68.2,54.7,61.8,56.2,53.3,99,70,33,29.95,29.85,6,1,10,0.00
2013-8-22,81.3,65.3,53.4,60.8,55.6,52.8,99,74,42,29.99,29.90,7,1,11,0.00
2013-8-23,87.6,66.6,50.4,61.9,55.5,50.1,99,72,38,29.95,29.81,7,1,11,0.00
2013-8-24,85.3,68.8,55.0,62.8,58.1,54.2,99,72,41,29.94,29.86,5,1,11,0.00
2013-8-25,87.4,70.2,59.7,66.4,61.7,58.0,99,77,45,29.97,29.90,6,1,12,0.00
2013-8-26,86.5,69.6,59.9,62.2,58.1,53.9,93,70,39,30.03,29.92,5,1,8,0.00
2013-8-27,91.8,70.5,52.9,61.0,57.1,52.3,99,68,30,29.94,29.82,5,1,8,0.00
2013-8-28,90.7,70.9,55.2,64.2,60.8,54.4,99,75,36,29.97,29.88,4,1,8,0.00
2013-8-29,90.1,71.3,57.4,67.1,61.3,57.1,99,75,37,30.07,29.97,4,0,7,0.00
2013-8-30,100.2,76.7,59.9,66.8,60.9,51.1,99,65,24,30.07,29.92,5,1,8,0.00
2013-8-31,92.3,72.5,55.4,62.0,55.7,44.0,99,61,25,29.99,29.90,4,1,8,0.00
2013-9-1,90.0,72.5,60.4,61.2,58.5,56.2,91,65,33,29.97,29.88,8,1,9,0.00
2013-9-2,87.8,73.1,63.7,65.8,62.6,59.1,89,72,44,29.97,29.90,5,1,10,0.00
2013-9-3,84.4,69.0,54.7,61.7,57.0,50.1,99,70,34,30.01,29.95,6,1,10,0.00
2013-9-4,84.6,68.6,55.6,65.3,58.9,55.3,99,75,43,30.04,29.96,6,1,11,0.00
2013-9-5,84.9,68.8,56.3,64.2,57.7,53.7,99,72,37,30.02,29.96,4,1,8,0.00
2013-9-6,95.7,72.5,52.0,62.7,53.8,45.7,99,61,22,30.02,29.84,4,0,5,0.00
2013-9-7,102.0,77.2,55.6,56.0,50.3,37.9,86,46,12,29.89,29.80,4,0,6,0.00
2013-9-8,100.6,77.8,55.6,60.4,52.9,40.3,88,48,14,29.89,29.75,3,0,5,0.00
2013-9-9,104.9,79.0,57.6,61.4,52.8,43.4,85,47,13,29.84,29.69,4,0,6,0.00
2013-9-10,87.3,69.2,58.1,62.5,58.5,53.4,92,71,40,29.92,29.74,7,1,13,0.00
2013-9-11,79.0,67.9,62.4,61.6,59.8,58.2,92,76,53,30.01,29.91,8,1,10,0.00
2013-9-12,87.6,69.9,59.5,65.1,61.1,58.0,95,76,45,30.00,29.88,5,0,9,0.00
2013-9-13,92.3,68.8,55.2,63.7,57.6,50.9,99,73,35,29.93,29.76,5,1,8,0.00
2013-9-14,82.9,65.5,53.6,62.2,57.4,52.8,99,78,47,29.83,29.74,4,1,6,0.00
2013-9-15,84.0,66.4,52.5,61.1,57.1,52.0,99,76,44,29.89,29.80,7,1,10,0.00
2013-9-16,62.2,57.9,55.0,57.3,55.8,54.2,99,93,83,29.90,29.83,4,0,7,0.00
2013-9-17,80.4,66.1,55.0,59.8,55.6,51.2,99,72,38,29.92,29.85,7,1,10,0.00
2013-9-18,56.8,53.9,50.7,54.3,52.2,50.4,99,94,88,29.93,29.90,3,0,4,0.00
2013-9-20,66.9,65.4,63.9,60.2,59.4,58.6,85,81,78,29.87,29.85,4,1,7,0.00
2013-9-21,70.0,62.3,52.7,63.9,58.5,52.2,98,88,67,29.93,29.83,5,1,11,0.58
2013-9-22,79.5,61.7,47.3,63.1,53.5,47.0,99,78,42,30.04,29.93,4,0,7,0.00
2013-9-23,87.1,66.5,49.8,60.8,56.0,49.6,99,74,37,30.04,29.94,3,0,5,0.00
2013-9-24,81.0,64.7,54.3,61.5,55.1,50.1,99,74,40,30.01,29.92,6,1,10,0.00
2013-9-25,76.1,61.4,48.4,55.6,48.5,43.4,99,66,35,29.96,29.84,4,1,8,0.00
2013-9-26,80.1,60.8,43.5,53.6,44.1,35.7,99,62,22,30.02,29.86,4,1,6,0.00
2013-9-27,82.0,61.2,42.1,54.1,41.3,32.2,99,58,17,30.11,30.02,3,1,6,0.00
2013-9-28,90.0,67.2,52.0,53.6,42.9,32.3,86,47,18,30.13,30.00,4,1,8,0.00
2013-9-29,58.1,54.8,52.5,55.6,53.6,52.0,99,96,86,30.13,30.10,2,0,4,0.00
2013-9-30,78.6,68.9,52.5,64.9,61.0,52.0,98,77,56,30.13,29.98,4,1,8,0.00
2013-10-1,80.1,61.7,47.7,60.2,51.9,47.4,99,74,35,30.03,29.93,5,1,7,0.00
2013-10-2,83.5,61.8,48.0,58.0,49.9,44.1,99,70,33,30.02,29.94,4,1,10,0.00
2013-10-3,77.4,61.3,43.7,51.4,41.1,28.8,98,56,17,30.08,29.98,4,1,8,13.26
2013-10-4,82.0,70.8,51.6,36.8,31.6,25.6,56,26,14,30.14,30.06,4,1,11,0.00
2013-10-5,86.7,69.6,51.1,41.0,32.1,25.0,59,28,13,30.22,30.13,3,1,4,0.00
2013-10-7,61.0,58.7,55.0,46.9,45.4,44.0,68,62,54,29.92,29.91,2,0,4,0.00
2013-10-8,82.8,61.8,47.7,49.7,45.7,41.4,89,61,24,29.92,29.75,3,0,5,0.00
2013-10-9,76.3,57.7,45.5,56.5,46.3,43.0,99,71,31,29.78,29.64,5,1,8,0.00
2013-10-10,80.6,60.1,45.7,51.2,45.2,40.0,90,64,25,30.02,29.78,3,0,8,0.00
2013-10-11,79.0,57.4,43.0,56.1,48.3,42.5,99,76,43,30.08,29.98,3,0,5,0.00
2013-10-12,79.3,56.9,42.3,54.2,46.6,39.0,99,74,34,30.02,29.91,6,1,10,0.00
2013-10-13,78.4,58.3,43.2,55.4,44.8,38.6,99,68,25,30.10,29.95,4,0,8,0.00
2013-10-14,81.1,59.2,43.3,50.8,41.4,36.7,94,59,21,30.13,30.02,4,1,7,0.00
2013-10-15,83.3,60.9,43.7,46.7,37.8,29.0,88,51,15,30.07,29.97,5,1,10,0.00
2013-10-16,84.2,61.4,42.3,46.1,39.8,34.8,87,51,19,30.11,30.03,2,0,4,0.00
2013-10-17,87.8,61.2,43.2,46.2,39.1,32.4,87,52,16,30.10,29.97,2,0,4,0.00
2013-10-18,86.2,62.8,45.3,45.4,40.2,36.8,76,49,21,30.06,29.99,4,1,5,0.00
2013-10-19,55.8,51.8,48.4,43.4,42.5,41.5,78,71,63,30.06,30.04,0,0,1,0.00
2013-10-21,56.1,54.0,52.2,49.7,48.9,48.1,86,83,79,30.00,29.97,0,0,0,0.00
2013-10-24,69.6,59.5,45.1,54.2,50.5,44.3,99,74,53,30.12,30.01,5,1,10,0.00
2013-10-25,77.9,57.0,40.3,56.9,47.8,40.0,99,76,39,30.18,30.08,3,0,4,0.00
2013-10-26,83.3,79.7,70.3,54.4,51.6,48.8,55,38,32,30.14,30.04,2,1,4,0.00
2013-10-27,69.1,59.1,51.6,54.7,50.6,47.4,88,74,53,29.96,29.67,10,2,15,0.00
2013-10-28,68.5,54.2,42.6,54.4,47.1,42.3,99,79,48,29.86,29.69,5,1,9,0.00
2013-10-29,70.2,57.5,43.7,51.5,47.4,43.2,98,71,45,30.08,29.86,5,1,8,0.00
2013-10-30,73.0,52.9,39.7,52.5,45.2,39.5,99,79,38,30.15,30.08,2,0,4,0.00
2013-10-31,78.3,55.8,42.1,50.9,45.0,41.8,99,73,32,30.19,30.07,3,1,4,0.00
2013-11-1,67.1,47.5,40.3,52.9,44.3,40.0,99,90,56,30.16,30.05,1,0,2,0.00
2013-11-2,80.4,64.6,46.9,52.1,48.7,44.2,99,62,31,30.05,29.91,3,1,7,0.00
2013-11-3,69.8,51.5,36.0,53.7,37.5,26.5,99,67,20,30.06,29.93,3,0,5,0.00
2013-11-4,73.0,50.7,33.1,46.8,32.5,19.9,99,59,14,30.10,29.94,3,0,5,0.00
2013-11-5,75.7,53.6,36.3,46.3,37.0,31.9,95,60,22,30.25,30.08,4,0,5,0.00
2013-11-6,74.3,54.8,38.7,47.7,41.1,37.0,97,64,30,30.28,30.19,4,0,6,0.00
2013-11-7,48.2,46.8,45.5,43.2,42.2,41.3,86,84,79,30.19,30.15,1,0,2,0.00
2013-11-8,81.5,62.9,45.5,53.1,47.9,41.6,96,63,32,30.15,29.96,2,1,4,0.00
2013-11-9,76.6,54.6,39.6,53.7,46.1,39.3,99,77,39,30.06,29.97,2,0,4,0.00
2013-11-10,74.8,53.1,39.4,54.2,46.8,39.1,99,83,47,30.13,30.04,2,0,4,0.00
2013-11-11,70.2,54.3,40.1,56.6,47.8,2.0,99,81,13,30.19,30.09,4,0,5,0.00
2013-11-12,70.0,58.1,52.9,54.2,50.8,49.1,92,78,49,30.28,30.16,2,0,4,0.00
2013-11-13,82.9,64.2,43.5,53.0,48.4,42.9,99,62,25,30.27,30.11,2,0,4,0.00
2013-11-14,78.1,56.8,46.2,57.3,50.9,45.4,99,84,45,30.13,29.88,4,1,6,0.00
2013-11-15,71.6,53.1,40.6,48.8,41.3,34.9,99,69,26,29.89,29.73,4,1,8,0.00
2013-11-16,68.0,51.6,41.4,53.1,44.7,39.5,99,81,37,29.95,29.77,4,1,7,0.00
2013-11-17,67.6,51.0,40.8,55.7,46.0,40.6,99,85,51,30.11,29.94,3,0,5,0.00
2013-11-18,64.0,49.4,37.8,53.3,45.3,37.5,99,87,54,30.15,30.09,5,1,8,0.00
2013-11-19,63.7,55.5,47.7,58.2,53.4,47.4,99,93,71,30.12,29.96,3,1,5,0.33
2013-11-20,61.2,57.4,55.8,60.6,57.0,55.5,99,99,97,29.96,29.86,3,0,6,0.34
2013-11-23,67.5,53.1,39.2,57.1,39.1,32.1,99,64,28,30.13,29.87,3,0,5,0.00
2013-11-24,65.3,46.4,33.6,49.7,40.2,33.3,99,82,44,30.28,30.12,7,0,19,0.00
2013-11-25,39.7,37.7,37.0,39.5,37.2,36.3,99,98,97,30.29,30.28,1,0,2,0.00
2013-11-26,55.4,49.9,41.3,51.4,45.5,31.5,99,84,38,30.27,29.97,2,0,4,13.97
2013-11-27,56.3,49.0,37.4,52.0,45.8,37.1,99,89,76,29.99,29.96,2,0,4,0.00
2013-11-28,70.0,55.6,42.3,53.7,44.8,41.2,99,71,37,30.09,29.94,3,1,6,0.00
2013-11-29,71.1,51.1,38.5,50.7,44.0,38.2,99,80,44,30.24,30.09,3,1,5,0.00
2013-11-30,68.9,49.2,37.8,48.8,43.7,37.5,99,84,47,30.29,30.19,4,1,5,0.00
2013-12-1,71.4,51.0,37.4,50.6,44.3,37.1,99,81,43,30.35,30.23,4,1,7,0.00
2013-12-2,72.7,52.7,40.3,51.8,46.5,39.8,99,83,37,30.25,29.97,5,1,8,0.00
2013-12-3,56.8,48.2,34.3,54.4,38.1,25.4,98,70,41,29.96,29.86,5,1,9,0.00
2013-12-4,54.5,37.9,24.4,38.4,20.3,14.1,98,54,22,30.12,29.97,4,1,6,0.00
2013-12-5,52.5,33.9,22.5,27.2,18.9,13.7,83,59,22,30.19,30.10,4,1,5,0.00
2013-12-6,54.7,41.7,28.8,48.7,32.5,20.0,99,72,46,30.20,29.92,8,1,15,0.55
2013-12-7,50.0,40.1,27.5,46.7,33.0,24.9,99,79,42,30.28,29.92,6,1,11,0.02
2013-12-8,45.3,34.4,26.1,33.0,22.6,17.2,99,66,34,30.35,30.25,6,1,8,0.00
2013-12-9,51.8,38.5,25.5,26.8,19.7,8.7,86,51,24,30.46,30.32,7,1,13,0.00
2013-12-10,54.3,35.0,22.3,39.5,26.0,20.5,99,73,33,30.44,30.22,4,0,6,0.00
2013-12-11,57.4,39.8,25.5,40.8,29.6,23.7,99,71,35,30.27,30.19,5,1,8,0.00
2013-12-12,60.4,38.7,25.3,42.6,31.3,23.9,99,78,39,30.29,30.17,3,0,4,0.00
2013-12-13,63.1,41.8,28.0,42.7,33.4,26.5,99,76,31,30.34,30.25,3,1,6,0.00
2013-12-14,61.0,41.0,28.4,43.7,33.6,27.4,99,77,42,30.43,30.32,4,1,7,0.00
2013-12-15,63.5,40.8,27.0,45.6,33.6,25.6,99,79,41,30.40,30.25,4,0,5,0.00
2013-12-16,67.8,44.8,30.7,48.7,35.4,30.4,99,75,29,30.28,30.13,6,0,8,0.00
2013-12-17,40.1,35.3,33.6,38.2,33.9,32.3,98,95,88,30.19,30.07,1,0,2,0.00
2013-12-18,69.1,53.4,36.0,47.7,43.3,35.2,99,73,39,29.99,29.77,4,1,7,0.00
2013-12-19,60.4,50.9,39.2,45.4,38.9,31.6,99,69,34,29.84,29.74,7,2,11,0.00
2013-12-20,63.7,48.4,28.2,32.7,24.1,16.8,86,44,17,30.02,29.95,4,0,5,0.00
2013-12-21,63.7,45.0,34.0,44.0,34.2,26.2,99,69,30,30.11,29.98,4,1,7,0.00
2013-12-22,65.8,43.3,32.2,41.2,36.4,31.9,99,81,39,30.28,30.11,4,1,8,0.00
2013-12-23,63.3,48.5,34.7,46.7,40.1,34.2,99,75,44,30.41,30.28,3,1,6,0.00
2013-12-24,69.4,47.4,35.2,46.4,39.4,34.5,99,78,39,30.36,30.22,4,1,6,0.00
2013-12-25,64.9,47.9,30.9,48.9,39.5,30.7,99,76,46,30.32,30.21,3,1,5,0.00
2013-12-26,35.4,32.7,30.7,34.1,32.0,30.5,99,97,94,30.28,30.25,1,0,2,0.00
2013-12-29,49.3,40.2,33.6,32.2,30.3,28.3,83,68,51,30.20,30.14,2,0,2,0.00
2013-12-30,64.2,42.6,28.4,45.3,35.4,27.6,99,79,43,30.27,30.19,3,0,4,0.00
2013-12-31,63.7,42.9,32.2,43.3,34.8,30.4,99,77,31,30.28,30.16,4,0,6,0.00
2014-1-1,67.3,45.0,31.1,39.7,33.6,28.9,96,69,25,30.23,30.13,4,0,6,14.55
2014-1-2,66.2,46.0,31.6,44.5,35.8,30.4,99,71,36,30.20,30.07,4,0,5,0.00